createdAt,value
2023-05-23T00:01:17.598Z,18.86
2023-05-23T00:03:45.799Z,18.90
2023-05-23T00:06:15.271Z,18.70
2023-05-23T00:08:43.375Z,18.86
2023-05-23T00:11:11.461Z,18.55
2023-05-23T00:13:40.310Z,18.29
2023-05-23T00:16:09.762Z,18.42
2023-05-23T00:18:43.457Z,18.58
2023-05-23T00:21:11.449Z,18.62
2023-05-23T00:23:42.281Z,18.66
2023-05-23T00:26:11.059Z,18.69
2023-05-23T00:28:39.441Z,18.56
2023-05-23T00:31:07.721Z,18.55
2023-05-23T00:33:36.886Z,18.60
2023-05-23T00:36:06.803Z,18.67
2023-05-23T00:38:34.699Z,18.62
2023-05-23T00:41:03.642Z,18.87
2023-05-23T00:43:32.597Z,19.08
2023-05-23T00:46:01.958Z,19.20
2023-05-23T00:48:31.277Z,19.29
2023-05-23T00:50:59.694Z,19.43
2023-05-23T00:53:29.674Z,19.41
2023-05-23T00:55:58.132Z,19.32
2023-05-23T00:58:26.434Z,19.36
2023-05-23T01:00:56.226Z,19.50
2023-05-23T01:03:28.652Z,19.64
2023-05-23T01:05:57.664Z,19.56
2023-05-23T01:08:25.616Z,19.64
2023-05-23T01:10:55.147Z,19.63
2023-05-23T01:13:33.388Z,19.72
2023-05-23T01:16:07.527Z,19.71
2023-05-23T01:18:42.628Z,19.77
2023-05-23T01:21:14.146Z,19.80
2023-05-23T01:24:05.494Z,19.58
2023-05-23T01:26:48.267Z,19.53
2023-05-23T01:29:33.781Z,19.58
2023-05-23T01:32:04.859Z,19.67
2023-05-23T01:34:34.944Z,19.71
2023-05-23T01:37:03.065Z,19.53
2023-05-23T01:39:31.172Z,19.65
2023-05-23T01:41:59.620Z,19.65
2023-05-23T01:44:29.284Z,19.43
2023-05-23T01:46:58.833Z,19.64
2023-05-23T01:49:28.030Z,19.50
2023-05-23T01:51:56.486Z,19.69
2023-05-23T01:54:25.263Z,19.60
2023-05-23T01:56:53.543Z,19.55
2023-05-23T01:59:21.923Z,19.70
2023-05-23T02:01:51.960Z,19.73
2023-05-23T02:04:20.035Z,19.76
2023-05-23T02:06:47.902Z,19.52
2023-05-23T02:09:17.082Z,19.69
2023-05-23T02:11:45.074Z,19.73
2023-05-23T02:14:13.751Z,19.61
2023-05-23T02:16:42.153Z,19.55
2023-05-23T02:19:11.364Z,19.56
2023-05-23T02:21:39.648Z,19.56
2023-05-23T02:24:08.113Z,19.59
2023-05-23T02:26:36.206Z,19.61
2023-05-23T02:29:04.344Z,19.58
2023-05-23T02:31:32.733Z,19.47
2023-05-23T02:34:00.592Z,19.48
2023-05-23T02:36:29.988Z,19.45
2023-05-23T02:38:59.031Z,19.43
2023-05-23T02:41:27.144Z,19.42
2023-05-23T02:43:55.062Z,19.47
2023-05-23T02:46:23.699Z,19.32
2023-05-23T02:48:51.754Z,19.33
2023-05-23T02:51:19.762Z,19.09
2023-05-23T02:53:49.474Z,19.02
2023-05-23T02:56:19.043Z,19.02
2023-05-23T02:58:47.137Z,18.83
2023-05-23T03:01:15.405Z,18.88
2023-05-23T03:03:43.545Z,18.87
2023-05-23T03:06:14.726Z,18.92
2023-05-23T03:08:43.705Z,18.74
2023-05-23T03:11:12.993Z,18.83
2023-05-23T03:13:41.001Z,18.83
2023-05-23T03:16:09.407Z,18.74
2023-05-23T03:18:37.341Z,18.62
2023-05-23T03:21:05.765Z,18.70
2023-05-23T03:23:34.040Z,18.76
2023-05-23T03:26:02.039Z,18.72
2023-05-23T03:28:32.279Z,18.76
2023-05-23T03:31:00.867Z,18.61
2023-05-23T03:33:28.989Z,18.36
2023-05-23T03:35:57.701Z,18.60
2023-05-23T03:38:26.594Z,18.72
2023-05-23T03:40:54.550Z,18.68
2023-05-23T03:43:22.570Z,18.63
2023-05-23T03:45:52.447Z,18.77
2023-05-23T03:48:20.769Z,18.65
2023-05-23T03:50:48.884Z,18.93
2023-05-23T03:53:17.304Z,18.60
2023-05-23T03:55:45.552Z,18.88
2023-05-23T03:58:14.318Z,18.96
2023-05-23T04:00:43.183Z,18.89
2023-05-23T04:03:14.700Z,18.89
2023-05-23T04:05:43.944Z,18.80
2023-05-23T04:08:12.249Z,18.84
2023-05-23T04:10:40.573Z,18.85
2023-05-23T04:13:10.329Z,19.02
2023-05-23T04:15:39.773Z,19.08
2023-05-23T04:18:09.366Z,19.38
2023-05-23T04:20:39.636Z,19.64
2023-05-23T04:23:08.220Z,19.52
2023-05-23T04:25:36.831Z,19.68
2023-05-23T04:28:06.072Z,19.64
2023-05-23T04:30:35.064Z,19.61
2023-05-23T04:33:03.945Z,19.61
2023-05-23T04:35:34.758Z,20.03
2023-05-23T04:38:04.277Z,20.54
2023-05-23T04:40:32.936Z,20.86
2023-05-23T04:43:01.161Z,20.77
2023-05-23T04:45:29.827Z,20.58
2023-05-23T04:47:58.594Z,20.67
2023-05-23T04:50:28.741Z,20.99
2023-05-23T04:52:57.374Z,20.75
2023-05-23T04:55:27.030Z,20.75
2023-05-23T04:57:56.418Z,20.69
2023-05-23T05:00:25.395Z,20.59
2023-05-23T05:02:53.987Z,20.28
2023-05-23T05:05:22.436Z,20.45
2023-05-23T05:07:51.391Z,20.46
2023-05-23T05:10:19.807Z,20.40
2023-05-23T05:12:50.656Z,20.69
2023-05-23T05:15:21.530Z,20.60
2023-05-23T05:17:50.189Z,20.65
2023-05-23T05:20:18.671Z,20.75
2023-05-23T05:22:48.598Z,20.83
2023-05-23T05:25:16.961Z,21.29
2023-05-23T05:27:46.186Z,21.34
2023-05-23T05:30:17.229Z,21.58
2023-05-23T05:32:46.412Z,21.66
2023-05-23T05:35:15.471Z,21.53
2023-05-23T05:37:44.524Z,21.64
2023-05-23T05:40:13.639Z,21.93
2023-05-23T05:42:42.225Z,21.91
2023-05-23T05:45:12.135Z,22.02
2023-05-23T05:47:42.295Z,21.92
2023-05-23T05:50:11.734Z,22.03
2023-05-23T05:52:40.630Z,22.14
2023-05-23T05:55:12.100Z,22.01
2023-05-23T05:57:41.356Z,22.29
2023-05-23T06:00:13.766Z,22.10
2023-05-23T06:02:48.006Z,21.88
2023-05-23T06:05:17.370Z,21.65
2023-05-23T06:07:45.748Z,21.59
2023-05-23T06:10:14.939Z,21.39
2023-05-23T06:12:43.454Z,21.49
2023-05-23T06:15:13.709Z,21.79
2023-05-23T06:17:45.468Z,22.68
2023-05-23T06:20:14.331Z,22.78
2023-05-23T06:22:42.994Z,23.39
2023-05-23T06:25:12.703Z,24.03
2023-05-23T06:27:41.565Z,25.48
2023-05-23T06:30:11.275Z,25.82
2023-05-23T06:32:40.972Z,25.96
2023-05-23T06:35:11.426Z,26.84
2023-05-23T06:37:44.163Z,27.18
2023-05-23T06:40:14.821Z,28.77
2023-05-23T06:42:43.231Z,29.23
2023-05-23T06:45:15.758Z,30.05
2023-05-23T06:47:45.795Z,28.00
2023-05-23T06:50:20.434Z,28.31
2023-05-23T06:52:50.092Z,29.14
2023-05-23T06:55:19.722Z,29.48
2023-05-23T06:57:51.215Z,27.72
2023-05-23T07:00:20.251Z,26.60
2023-05-23T07:02:50.170Z,26.02
2023-05-23T07:05:20.660Z,25.59
2023-05-23T07:07:49.628Z,25.06
2023-05-23T07:10:17.921Z,24.85
2023-05-23T07:12:47.131Z,24.49
2023-05-23T07:15:16.556Z,24.34
2023-05-23T07:17:45.978Z,23.92
2023-05-23T07:20:15.437Z,23.63
2023-05-23T07:22:45.774Z,23.61
2023-05-23T07:25:14.564Z,24.04
2023-05-23T07:27:43.653Z,23.04
2023-05-23T07:30:12.767Z,23.49
2023-05-23T07:32:41.715Z,23.02
2023-05-23T07:35:11.355Z,23.29
2023-05-23T07:37:40.011Z,23.30
2023-05-23T07:40:11.187Z,22.83
2023-05-23T07:42:39.907Z,23.01
2023-05-23T07:45:09.570Z,23.05
2023-05-23T07:47:38.744Z,22.74
2023-05-23T07:50:08.413Z,23.07
2023-05-23T07:52:37.382Z,23.47
2023-05-23T07:55:08.182Z,23.30
2023-05-23T07:57:38.262Z,22.76
2023-05-23T08:00:07.887Z,23.22
2023-05-23T08:02:39.320Z,23.14
2023-05-23T08:05:08.899Z,24.14
2023-05-23T08:07:37.823Z,24.51
2023-05-23T08:10:08.058Z,24.98
2023-05-23T08:12:38.285Z,25.89
2023-05-23T08:15:08.838Z,25.92
2023-05-23T08:17:38.224Z,26.08
2023-05-23T08:20:10.640Z,25.75
2023-05-23T08:22:39.750Z,26.09
2023-05-23T08:25:08.962Z,26.06
2023-05-23T08:27:39.688Z,26.49
2023-05-23T08:30:10.101Z,26.79
2023-05-23T08:32:38.873Z,25.55
2023-05-23T08:35:09.417Z,25.92
2023-05-23T08:37:38.870Z,25.62
2023-05-23T08:40:15.951Z,25.99
2023-05-23T08:42:46.499Z,26.26
2023-05-23T08:45:16.169Z,25.67
2023-05-23T08:47:46.367Z,25.58
2023-05-23T08:50:18.585Z,26.97
2023-05-23T08:52:56.171Z,27.19
2023-05-23T08:55:27.907Z,27.14
2023-05-23T08:58:00.732Z,26.20
2023-05-23T09:00:30.725Z,25.74
2023-05-23T09:02:59.916Z,26.05
2023-05-23T09:05:29.085Z,25.99
2023-05-23T09:07:58.527Z,26.46
2023-05-23T09:10:30.155Z,27.89
2023-05-23T09:13:00.617Z,28.54
2023-05-23T09:15:29.400Z,27.81
2023-05-23T09:18:04.040Z,28.27
2023-05-23T09:20:33.205Z,28.12
2023-05-23T09:23:03.675Z,26.91
2023-05-23T09:25:33.071Z,27.14
2023-05-23T09:28:04.771Z,29.10
2023-05-23T09:30:37.032Z,30.88
2023-05-23T09:33:06.340Z,31.28
2023-05-23T09:35:35.136Z,32.59
2023-05-23T09:38:04.248Z,31.03
2023-05-23T09:40:34.550Z,33.10
2023-05-23T09:43:08.357Z,33.88
2023-05-23T09:45:37.157Z,32.71
2023-05-23T09:48:06.546Z,31.78
2023-05-23T09:50:35.433Z,30.74
2023-05-23T09:53:04.684Z,30.55
2023-05-23T09:55:34.504Z,30.97
2023-05-23T09:58:06.070Z,30.56
2023-05-23T10:00:36.867Z,30.90
2023-05-23T10:03:13.999Z,30.50
2023-05-23T10:05:48.420Z,28.67
2023-05-23T10:08:20.600Z,27.67
2023-05-23T10:11:36.662Z,26.42
2023-05-23T10:14:08.784Z,27.38
2023-05-23T10:16:49.999Z,27.26
2023-05-23T10:19:26.183Z,26.72
2023-05-23T10:22:01.101Z,27.13
2023-05-23T10:24:30.061Z,27.98
2023-05-23T10:27:00.015Z,28.13
2023-05-23T10:29:31.134Z,29.52
2023-05-23T10:32:03.011Z,29.41
2023-05-23T10:34:39.393Z,29.44
2023-05-23T10:37:09.361Z,30.28
2023-05-23T10:39:58.318Z,29.46
2023-05-23T10:42:37.273Z,29.31
2023-05-23T10:45:23.193Z,29.08
2023-05-23T10:47:54.574Z,31.20
2023-05-23T10:50:37.971Z,27.84
2023-05-23T10:53:08.467Z,25.20
2023-05-23T10:55:38.812Z,25.19
2023-05-23T10:58:17.529Z,24.85
2023-05-23T11:01:04.753Z,25.51
2023-05-23T11:03:39.640Z,25.21
2023-05-23T11:06:09.417Z,25.14
2023-05-23T11:08:48.824Z,25.67
2023-05-23T11:11:18.552Z,26.02
2023-05-23T11:14:02.911Z,25.68
2023-05-23T11:16:34.390Z,26.93
2023-05-23T11:19:28.638Z,27.64
2023-05-23T11:22:00.756Z,27.41
2023-05-23T11:24:51.711Z,27.04
2023-05-23T11:27:27.653Z,26.27
2023-05-23T11:30:04.263Z,26.04
2023-05-23T11:32:34.823Z,25.58
2023-05-23T11:35:06.104Z,24.96
2023-05-23T11:37:36.009Z,24.22
2023-05-23T11:40:28.941Z,24.23
2023-05-23T11:42:58.350Z,25.27
2023-05-23T11:45:27.293Z,26.02
2023-05-23T11:47:56.156Z,25.98
2023-05-23T11:50:28.534Z,26.63
2023-05-23T11:52:57.227Z,26.32
2023-05-23T11:55:25.950Z,26.55
2023-05-23T11:57:59.096Z,25.84
2023-05-23T12:00:27.509Z,25.54
2023-05-23T12:02:55.885Z,26.27
2023-05-23T12:05:26.400Z,25.32
2023-05-23T12:07:54.693Z,25.07
2023-05-23T12:10:30.032Z,24.97
2023-05-23T12:12:59.049Z,25.33
2023-05-23T12:15:28.582Z,26.11
2023-05-23T12:17:57.804Z,26.42
2023-05-23T12:20:27.844Z,26.74
2023-05-23T12:22:58.176Z,27.09
2023-05-23T12:25:26.671Z,27.18
2023-05-23T12:27:56.438Z,27.30
2023-05-23T12:30:25.278Z,26.93
2023-05-23T12:32:54.070Z,26.73
2023-05-23T12:35:22.708Z,26.78
2023-05-23T12:37:55.496Z,27.01
2023-05-23T12:40:24.291Z,26.86
2023-05-23T12:42:53.949Z,26.75
2023-05-23T12:45:27.088Z,27.39
2023-05-23T12:47:55.610Z,27.06
2023-05-23T12:50:24.030Z,26.66
2023-05-23T12:52:54.483Z,26.52
2023-05-23T12:55:23.204Z,26.97
2023-05-23T12:57:52.177Z,27.10
2023-05-23T13:00:22.432Z,25.97
2023-05-23T13:02:51.603Z,26.45
2023-05-23T13:05:21.186Z,25.21
2023-05-23T13:07:50.226Z,25.02
2023-05-23T13:10:20.812Z,25.85
2023-05-23T13:12:49.358Z,25.86
2023-05-23T13:15:18.422Z,26.21
2023-05-23T13:17:50.134Z,27.21
2023-05-23T13:20:19.570Z,26.20
2023-05-23T13:22:48.356Z,25.80
2023-05-23T13:25:17.145Z,25.69
2023-05-23T13:27:49.259Z,24.94
2023-05-23T13:30:18.264Z,23.99
2023-05-23T13:32:46.867Z,24.26
2023-05-23T13:35:17.167Z,24.24
2023-05-23T13:37:45.730Z,23.45
2023-05-23T13:40:18.777Z,23.32
2023-05-23T13:42:50.884Z,23.01
2023-05-23T13:45:20.598Z,23.01
2023-05-23T13:47:50.367Z,22.82
2023-05-23T13:50:19.351Z,22.66
2023-05-23T13:52:49.433Z,23.01
2023-05-23T13:55:18.876Z,22.94
2023-05-23T13:57:49.755Z,23.34
2023-05-23T14:00:18.796Z,23.36
2023-05-23T14:02:47.739Z,23.27
2023-05-23T14:05:17.265Z,23.61
2023-05-23T14:07:47.576Z,23.66
2023-05-23T14:10:17.754Z,23.70
2023-05-23T14:12:46.119Z,23.70
2023-05-23T14:15:16.073Z,23.82
2023-05-23T14:17:44.800Z,24.35
2023-05-23T14:20:14.075Z,23.72
2023-05-23T14:22:42.755Z,24.09
2023-05-23T14:25:12.142Z,24.37
2023-05-23T14:27:40.747Z,24.42
2023-05-23T14:30:11.169Z,24.67
2023-05-23T14:32:42.149Z,24.56
2023-05-23T14:35:12.533Z,24.04
2023-05-23T14:37:41.258Z,23.45
2023-05-23T14:40:11.859Z,23.86
2023-05-23T14:42:40.123Z,23.58
2023-05-23T14:45:09.042Z,23.78
2023-05-23T14:47:38.420Z,23.95
2023-05-23T14:50:09.724Z,23.32
2023-05-23T14:52:38.661Z,23.14
2023-05-23T14:55:08.067Z,22.72
2023-05-23T14:57:36.834Z,23.07
2023-05-23T15:00:06.042Z,23.33
2023-05-23T15:02:34.800Z,23.75
2023-05-23T15:05:03.939Z,23.54
2023-05-23T15:07:33.712Z,23.73
2023-05-23T15:10:02.017Z,23.26
2023-05-23T15:12:30.908Z,22.69
2023-05-23T15:15:03.912Z,22.68
2023-05-23T15:17:33.564Z,22.64
2023-05-23T15:20:04.469Z,22.70
2023-05-23T15:22:39.692Z,22.33
2023-05-23T15:25:09.732Z,21.99
2023-05-23T15:27:38.865Z,21.94
2023-05-23T15:30:08.625Z,21.41
2023-05-23T15:32:37.015Z,21.50
2023-05-23T15:35:06.659Z,21.62
2023-05-23T15:37:36.494Z,21.43
2023-05-23T15:40:05.147Z,21.57
2023-05-23T15:42:34.080Z,21.36
2023-05-23T15:45:02.502Z,21.34
2023-05-23T15:47:30.632Z,21.30
2023-05-23T15:49:59.204Z,21.34
2023-05-23T15:52:27.740Z,21.66
2023-05-23T15:54:58.291Z,21.46
2023-05-23T15:57:27.060Z,21.31
2023-05-23T15:59:55.402Z,21.64
2023-05-23T16:02:24.070Z,22.07
2023-05-23T16:04:53.089Z,21.63
2023-05-23T16:07:21.580Z,21.51
2023-05-23T16:09:49.774Z,20.35
2023-05-23T16:12:19.968Z,20.59
2023-05-23T16:14:48.745Z,20.16
2023-05-23T16:17:17.065Z,19.89
2023-05-23T16:19:45.876Z,19.96
2023-05-23T16:22:14.099Z,19.69
2023-05-23T16:24:42.362Z,19.96
2023-05-23T16:27:11.024Z,19.77
2023-05-23T16:29:40.886Z,19.71
2023-05-23T16:32:09.634Z,19.66
2023-05-23T16:34:38.494Z,19.97
2023-05-23T16:37:07.268Z,20.00
2023-05-23T16:39:35.669Z,19.82
2023-05-23T16:42:04.580Z,19.37
2023-05-23T16:44:33.129Z,19.41
2023-05-23T16:47:02.695Z,19.19
2023-05-23T16:49:31.742Z,19.17
2023-05-23T16:52:00.374Z,18.92
2023-05-23T16:54:28.924Z,18.66
2023-05-23T16:56:58.313Z,18.40
2023-05-23T16:59:26.828Z,17.83
2023-05-23T17:01:56.010Z,17.99
2023-05-23T17:04:26.875Z,17.97
2023-05-23T17:06:55.460Z,17.72
2023-05-23T17:09:24.635Z,17.51
2023-05-23T17:11:54.053Z,17.51
2023-05-23T17:14:22.430Z,17.85
2023-05-23T17:16:51.391Z,17.73
2023-05-23T17:19:20.845Z,17.73
2023-05-23T17:21:50.958Z,17.66
2023-05-23T17:24:19.390Z,17.75
2023-05-23T17:26:48.439Z,17.73
2023-05-23T17:29:17.479Z,17.81
2023-05-23T17:31:45.834Z,17.63
2023-05-23T17:34:17.806Z,17.34
2023-05-23T17:36:46.297Z,17.22
2023-05-23T17:39:16.515Z,17.45
2023-05-23T17:41:45.359Z,17.40
2023-05-23T17:44:13.891Z,17.16
2023-05-23T17:46:42.251Z,16.99
2023-05-23T17:49:11.154Z,17.27
2023-05-23T17:51:39.618Z,17.30
2023-05-23T17:54:08.136Z,17.32
2023-05-23T17:56:38.880Z,17.55
2023-05-23T17:59:07.519Z,17.81
2023-05-23T18:01:36.955Z,17.43
2023-05-23T18:04:05.893Z,17.44
2023-05-23T18:06:34.136Z,17.59
2023-05-23T18:09:03.126Z,17.34
2023-05-23T18:11:31.575Z,16.92
2023-05-23T18:14:01.629Z,17.02
2023-05-23T18:16:30.487Z,17.00
2023-05-23T18:18:59.853Z,17.01
2023-05-23T18:21:29.000Z,17.53
2023-05-23T18:23:58.260Z,17.58
2023-05-23T18:26:27.387Z,17.38
2023-05-23T18:28:56.443Z,17.48
2023-05-23T18:31:27.763Z,17.55
2023-05-23T18:33:56.916Z,17.46
2023-05-23T18:36:25.407Z,17.15
2023-05-23T18:38:54.545Z,17.22
2023-05-23T18:41:24.355Z,17.24
2023-05-23T18:43:53.749Z,17.29
2023-05-23T18:46:24.937Z,17.21
2023-05-23T18:48:56.094Z,16.92
2023-05-23T18:51:25.497Z,17.12
2023-05-23T18:53:54.082Z,16.97
2023-05-23T18:56:23.507Z,17.39
2023-05-23T18:58:52.660Z,17.17
2023-05-23T19:01:22.134Z,16.85
2023-05-23T19:03:51.126Z,16.99
2023-05-23T19:06:21.859Z,17.04
2023-05-23T19:08:51.171Z,17.10
2023-05-23T19:11:19.719Z,16.98
2023-05-23T19:13:48.838Z,16.97
2023-05-23T19:16:17.811Z,17.20
2023-05-23T19:18:47.767Z,17.34
2023-05-23T19:21:17.510Z,17.17
2023-05-23T19:23:47.815Z,17.27
2023-05-23T19:26:18.315Z,17.23
2023-05-23T19:28:47.730Z,17.05
2023-05-23T19:31:16.501Z,16.94
2023-05-23T19:33:45.089Z,17.12
2023-05-23T19:36:14.358Z,16.73
2023-05-23T19:38:42.749Z,16.69
2023-05-23T19:41:12.763Z,16.57
2023-05-23T19:43:41.791Z,16.52
2023-05-23T19:46:10.929Z,16.66
2023-05-23T19:48:39.982Z,16.53
2023-05-23T19:51:08.398Z,16.72
2023-05-23T19:53:36.813Z,16.07
2023-05-23T19:56:05.903Z,15.90
2023-05-23T19:58:36.504Z,15.99
2023-05-23T20:01:07.410Z,15.58
2023-05-23T20:03:36.696Z,15.57
2023-05-23T20:06:05.428Z,15.36
2023-05-23T20:08:34.699Z,15.04
2023-05-23T20:11:03.164Z,14.83
2023-05-23T20:13:32.153Z,14.74
2023-05-23T20:16:02.997Z,14.51
2023-05-23T20:18:32.321Z,14.55
2023-05-23T20:21:03.528Z,14.30
2023-05-23T20:23:34.389Z,14.14
2023-05-23T20:26:02.949Z,14.05
2023-05-23T20:28:31.108Z,14.13
2023-05-23T20:31:00.011Z,13.90
2023-05-23T20:33:30.294Z,13.97
2023-05-23T20:36:00.039Z,13.97
2023-05-23T20:38:29.131Z,13.89
2023-05-23T20:40:57.789Z,13.83
2023-05-23T20:43:26.865Z,13.82
2023-05-23T20:45:57.471Z,14.01
2023-05-23T20:48:26.672Z,14.02
2023-05-23T20:50:57.899Z,13.99
2023-05-23T20:53:26.871Z,14.24
2023-05-23T20:55:55.484Z,14.19
2023-05-23T20:58:24.230Z,14.12
2023-05-23T21:00:53.293Z,14.10
2023-05-23T21:03:22.126Z,14.33
2023-05-23T21:05:50.520Z,14.19
2023-05-23T21:08:21.701Z,14.31
2023-05-23T21:10:53.313Z,14.57
2023-05-23T21:13:23.215Z,14.49
2023-05-23T21:15:51.994Z,14.47
2023-05-23T21:18:20.258Z,14.68
2023-05-23T21:20:49.108Z,14.79
2023-05-23T21:23:17.379Z,14.86
2023-05-23T21:25:47.322Z,14.78
2023-05-23T21:28:16.177Z,14.85
2023-05-23T21:30:44.857Z,14.77
2023-05-23T21:33:13.732Z,14.71
2023-05-23T21:35:42.455Z,14.74
2023-05-23T21:38:11.269Z,14.50
2023-05-23T21:40:40.338Z,14.40
2023-05-23T21:43:10.216Z,14.28
2023-05-23T21:45:38.643Z,14.60
2023-05-23T21:48:07.751Z,14.32
2023-05-23T21:50:36.697Z,14.37
2023-05-23T21:53:04.976Z,14.26
2023-05-23T21:55:33.863Z,14.39
2023-05-23T21:58:02.190Z,14.18
2023-05-23T22:00:32.363Z,14.27
2023-05-23T22:03:00.743Z,14.57
2023-05-23T22:05:29.051Z,14.52
2023-05-23T22:07:57.953Z,14.44
2023-05-23T22:10:26.408Z,14.13
2023-05-23T22:12:54.763Z,14.53
2023-05-23T22:15:23.856Z,14.45
2023-05-23T22:17:53.748Z,14.57
2023-05-23T22:20:23.841Z,14.40
2023-05-23T22:22:52.544Z,14.52
2023-05-23T22:25:22.004Z,14.51
2023-05-23T22:27:50.991Z,14.24
2023-05-23T22:30:19.487Z,14.24
2023-05-23T22:32:48.417Z,14.25
2023-05-23T22:35:18.445Z,14.09
2023-05-23T22:37:47.192Z,14.45
2023-05-23T22:40:15.782Z,14.54
2023-05-23T22:42:44.184Z,14.39
2023-05-23T22:45:12.820Z,14.48
2023-05-23T22:47:42.268Z,14.24
2023-05-23T22:50:11.554Z,14.01
2023-05-23T22:52:41.150Z,13.91
2023-05-23T22:55:10.799Z,14.30
2023-05-23T22:57:39.095Z,14.29
2023-05-23T23:00:09.049Z,14.17
2023-05-23T23:02:37.971Z,14.12
2023-05-23T23:05:06.661Z,14.24
2023-05-23T23:07:34.996Z,14.08
2023-05-23T23:10:05.829Z,14.32
2023-05-23T23:12:34.574Z,14.08
2023-05-23T23:15:04.587Z,14.22
2023-05-23T23:17:33.973Z,14.38
2023-05-23T23:20:02.477Z,14.52
2023-05-23T23:22:31.604Z,14.32
2023-05-23T23:25:03.884Z,14.20
2023-05-23T23:27:34.275Z,13.75
2023-05-23T23:30:04.186Z,13.77
2023-05-23T23:32:34.320Z,13.81
2023-05-23T23:35:03.313Z,13.98
2023-05-23T23:37:33.036Z,14.01
2023-05-23T23:40:01.732Z,14.21
2023-05-23T23:42:31.188Z,14.33
2023-05-23T23:45:02.077Z,13.97
2023-05-23T23:47:31.880Z,14.01
2023-05-23T23:50:00.246Z,13.56
2023-05-23T23:52:30.616Z,13.62
2023-05-23T23:54:59.162Z,13.63
2023-05-23T23:57:27.684Z,13.65
2023-05-23T23:59:57.187Z,13.70
